Cebu Island — 3FIN8 — position and weather

sailwx.info

Track history (hours):
 
Tides and Currents Weather Stations Pressure Air Temp Water Temp Dewpoint Dewpoint Depression Visibility Wind Speed Wind Dir Waves Ship Positions

Cebu Island

Last reported at 2017-Nov-30 00:53 UTC. Time now 2017-Dec-15 08:05 UTC.
Position N 34°08' E 139°21'.
Warning: this ship's position is 15 days out of date.

Length 180 m; draft 8.3 m.

Type: Cargo ship. MMSI: 374077000.

Date/timePositionNaut miles runAvg speedWind from/ knotsBaromVisibWave heightAir tempDewpointWater temp
2017-Nov-30 00:53N 34°08' E 139°21'814.9
2017-Nov-30 00:21N 34°06' E 139°12'30913.6
2017-Nov-29 01:35N 32°47' E 133°14'5611.1
2017-Nov-28 20:31N 33°01' E 132°09'015.1
2017-Nov-28 20:30N 33°01' E 132°09'1313.1
2017-Nov-28 19:32N 33°12' E 132°02'012.7
2017-Nov-28 19:30N 33°13' E 132°02'712.5
2017-Nov-28 18:57N 33°18' E 131°57'613.7
2017-Nov-28 18:30N 33°19' E 131°50'713.7
2017-Nov-28 18:00N 33°19' E 131°42'3 0.4
2017-Nov-28 10:56N 33°16' E 131°40'0 0.0
2017-Nov-28 10:26N 33°16' E 131°40'0 0.0
2017-Nov-28 08:02N 33°16' E 131°40'0 0.0
2017-Nov-28 06:56N 33°16' E 131°40'0 0.0
2017-Nov-28 04:14N 33°16' E 131°40'0 0.0
2017-Nov-28 03:56N 33°16' E 131°40'0 0.0
2017-Nov-28 03:14N 33°16' E 131°40'0 0.0
2017-Nov-27 14:29N 33°16' E 131°40'1 1.6
2017-Nov-27 14:00N 33°17' E 131°40'2 4.1
2017-Nov-27 13:30N 33°19' E 131°40'4 7.1
2017-Nov-27 13:00N 33°18' E 131°44'2 0.2
2017-Nov-27 01:52N 33°16' E 131°46'0 0.1
2017-Nov-27 01:28N 33°16' E 131°46'0 0.0
2017-Nov-27 00:22N 33°16' E 131°46'0 0.0
2017-Nov-26 23:58N 33°16' E 131°46'0 0.0
2017-Nov-26 23:22N 33°16' E 131°46'0 0.0
2017-Nov-26 22:40N 33°16' E 131°46'0 0.0
2017-Nov-26 02:59N 33°16' E 131°46'2 4.7
2017-Nov-26 02:30N 33°18' E 131°47'5 6.4
2017-Nov-26 01:48N 33°19' E 131°53'2 7.3
2017-Nov-26 01:29N 33°19' E 131°55'4 7.8
2017-Nov-26 00:59N 33°19' E 131°60'510.2
2017-Nov-26 00:29N 33°14' E 132°03'68 9.5
2017-Nov-25 17:21N 32°43' E 133°15'113 9.7
2017-Nov-25 05:41N 33°59' E 134°56'312.3
2017-Nov-25 05:24N 34°02' E 134°56'512.0
2017-Nov-25 05:00N 34°07' E 134°57'611.8
2017-Nov-25 04:30N 34°13' E 134°58'510.2
2017-Nov-25 04:00N 34°18' E 134°58'1012.4
2017-Nov-25 03:11N 34°28' E 135°02'312.8
2017-Nov-25 02:58N 34°30' E 135°03'4 9.5
2017-Nov-25 02:30N 34°35' E 135°05'5 9.0
2017-Nov-25 02:00N 34°37' E 135°00'5 9.8
2017-Nov-25 01:30N 34°37' E 134°55'6 9.3
2017-Nov-25 00:54N 34°39' E 134°49'2 5.2
2017-Nov-25 00:28N 34°41' E 134°47'0 0.1
2017-Nov-25 00:00N 34°41' E 134°47'0 0.0
2017-Nov-24 23:24N 34°41' E 134°47'0 0.1
2017-Nov-24 22:54N 34°41' E 134°47'0 0.1
2017-Nov-24 22:29N 34°41' E 134°47'1 0.0
2017-Nov-23 11:48N 34°41' E 134°48'0 0.0
2017-Nov-22 22:31N 34°41' E 134°48'0 0.0
2017-Nov-22 19:01N 34°41' E 134°48'  
Track history (hours):
 
Tides and Currents Weather Stations Pressure Air Temp Water Temp Dewpoint Dewpoint Depression Visibility Wind Speed Wind Dir Waves Ship Positions

Cebu Island

Last reported at 2017-Nov-30 00:53 UTC. Time now 2017-Dec-15 08:05 UTC.
Position N 34°08' E 139°21'.
Warning: this ship's position is 15 days out of date.

Length 180 m; draft 8.3 m.

Type: Cargo ship. MMSI: 374077000.

Date/timePositionNaut miles runAvg speedWind from/ knotsBaromVisibWave heightAir tempDewpointWater temp
2017-Nov-30 00:53N 34°08' E 139°21'814.9
2017-Nov-30 00:21N 34°06' E 139°12'30913.6
2017-Nov-29 01:35N 32°47' E 133°14'5611.1
2017-Nov-28 20:31N 33°01' E 132°09'015.1
2017-Nov-28 20:30N 33°01' E 132°09'1313.1
2017-Nov-28 19:32N 33°12' E 132°02'012.7
2017-Nov-28 19:30N 33°13' E 132°02'712.5
2017-Nov-28 18:57N 33°18' E 131°57'613.7
2017-Nov-28 18:30N 33°19' E 131°50'713.7
2017-Nov-28 18:00N 33°19' E 131°42'3 0.4
2017-Nov-28 10:56N 33°16' E 131°40'0 0.0
2017-Nov-28 10:26N 33°16' E 131°40'0 0.0
2017-Nov-28 08:02N 33°16' E 131°40'0 0.0
2017-Nov-28 06:56N 33°16' E 131°40'0 0.0
2017-Nov-28 04:14N 33°16' E 131°40'0 0.0
2017-Nov-28 03:56N 33°16' E 131°40'0 0.0
2017-Nov-28 03:14N 33°16' E 131°40'0 0.0
2017-Nov-27 14:29N 33°16' E 131°40'1 1.6
2017-Nov-27 14:00N 33°17' E 131°40'2 4.1
2017-Nov-27 13:30N 33°19' E 131°40'4 7.1
2017-Nov-27 13:00N 33°18' E 131°44'2 0.2
2017-Nov-27 01:52N 33°16' E 131°46'0 0.1
2017-Nov-27 01:28N 33°16' E 131°46'0 0.0
2017-Nov-27 00:22N 33°16' E 131°46'0 0.0
2017-Nov-26 23:58N 33°16' E 131°46'0 0.0
2017-Nov-26 23:22N 33°16' E 131°46'0 0.0
2017-Nov-26 22:40N 33°16' E 131°46'0 0.0
2017-Nov-26 02:59N 33°16' E 131°46'2 4.7
2017-Nov-26 02:30N 33°18' E 131°47'5 6.4
2017-Nov-26 01:48N 33°19' E 131°53'2 7.3
2017-Nov-26 01:29N 33°19' E 131°55'4 7.8
2017-Nov-26 00:59N 33°19' E 131°60'510.2
2017-Nov-26 00:29N 33°14' E 132°03'68 9.5
2017-Nov-25 17:21N 32°43' E 133°15'113 9.7
2017-Nov-25 05:41N 33°59' E 134°56'312.3
2017-Nov-25 05:24N 34°02' E 134°56'512.0
2017-Nov-25 05:00N 34°07' E 134°57'611.8
2017-Nov-25 04:30N 34°13' E 134°58'510.2
2017-Nov-25 04:00N 34°18' E 134°58'1012.4
2017-Nov-25 03:11N 34°28' E 135°02'312.8
2017-Nov-25 02:58N 34°30' E 135°03'4 9.5
2017-Nov-25 02:30N 34°35' E 135°05'5 9.0
2017-Nov-25 02:00N 34°37' E 135°00'5 9.8
2017-Nov-25 01:30N 34°37' E 134°55'6 9.3
2017-Nov-25 00:54N 34°39' E 134°49'2 5.2
2017-Nov-25 00:28N 34°41' E 134°47'0 0.1
2017-Nov-25 00:00N 34°41' E 134°47'0 0.0
2017-Nov-24 23:24N 34°41' E 134°47'0 0.1
2017-Nov-24 22:54N 34°41' E 134°47'0 0.1
2017-Nov-24 22:29N 34°41' E 134°47'1 0.0
2017-Nov-23 11:48N 34°41' E 134°48'0 0.0
2017-Nov-22 22:31N 34°41' E 134°48'0 0.0
2017-Nov-22 19:01N 34°41' E 134°48'  

Dump ship's entire track history